createdAt,value
2023-04-20T00:01:17.820Z,11.93
2023-04-20T00:03:45.295Z,12.40
2023-04-20T00:06:14.068Z,11.98
2023-04-20T00:08:41.261Z,12.50
2023-04-20T00:11:08.443Z,12.45
2023-04-20T00:13:35.662Z,12.82
2023-04-20T00:16:03.192Z,11.77
2023-04-20T00:18:30.420Z,13.17
2023-04-20T00:20:57.594Z,11.73
2023-04-20T00:23:24.799Z,12.18
2023-04-20T00:25:52.239Z,12.65
2023-04-20T00:28:19.498Z,12.13
2023-04-20T00:30:46.670Z,12.93
2023-04-20T00:33:13.882Z,12.48
2023-04-20T00:35:41.092Z,12.95
2023-04-20T00:38:08.277Z,12.68
2023-04-20T00:40:35.695Z,11.40
2023-04-20T00:43:14.257Z,11.80
2023-04-20T00:45:41.714Z,12.95
2023-04-20T00:48:08.892Z,13.17
2023-04-20T00:50:37.702Z,11.82
2023-04-20T00:53:07.044Z,12.60
2023-04-20T00:55:37.813Z,12.93
2023-04-20T00:58:06.597Z,12.75
2023-04-20T01:00:34.821Z,13.85
2023-04-20T01:03:02.285Z,12.60
2023-04-20T01:05:29.843Z,11.60
2023-04-20T01:07:57.141Z,13.30
2023-04-20T01:10:24.486Z,13.52
2023-04-20T01:12:51.745Z,13.60
2023-04-20T01:15:18.993Z,13.52
2023-04-20T01:17:46.310Z,13.95
2023-04-20T01:20:14.671Z,13.97
2023-04-20T01:22:51.335Z,13.55
2023-04-20T01:25:19.196Z,13.95
2023-04-20T01:27:46.735Z,15.00
2023-04-20T01:30:14.585Z,14.60
2023-04-20T01:32:41.987Z,14.10
2023-04-20T01:35:10.573Z,15.47
2023-04-20T01:37:39.344Z,14.25
2023-04-20T01:40:10.578Z,14.13
2023-04-20T01:42:37.914Z,15.32
2023-04-20T01:45:06.889Z,14.68
2023-04-20T01:47:34.930Z,14.63
2023-04-20T01:50:02.181Z,14.05
2023-04-20T01:52:29.410Z,15.18
2023-04-20T01:54:56.613Z,13.82
2023-04-20T01:57:23.879Z,14.55
2023-04-20T01:59:51.115Z,15.00
2023-04-20T02:02:18.699Z,14.20
2023-04-20T02:04:45.989Z,14.40
2023-04-20T02:07:13.176Z,15.32
2023-04-20T02:09:40.496Z,15.65
2023-04-20T02:12:07.800Z,15.07
2023-04-20T02:14:34.995Z,15.48
2023-04-20T02:17:02.426Z,15.32
2023-04-20T02:19:29.742Z,14.67
2023-04-20T02:21:56.956Z,14.10
2023-04-20T02:24:24.097Z,15.10
2023-04-20T02:26:51.448Z,14.73
2023-04-20T02:29:18.741Z,14.70
2023-04-20T02:31:46.174Z,16.60
2023-04-20T02:34:13.388Z,14.85
2023-04-20T02:36:40.861Z,15.38
2023-04-20T02:39:08.057Z,15.30
2023-04-20T02:41:35.210Z,16.80
2023-04-20T02:44:02.485Z,16.05
2023-04-20T02:46:29.749Z,15.50
2023-04-20T02:48:57.078Z,15.55
2023-04-20T02:51:24.496Z,15.65
2023-04-20T02:53:51.683Z,16.13
2023-04-20T02:56:19.024Z,17.67
2023-04-20T02:58:48.296Z,16.60
2023-04-20T03:01:15.980Z,16.70
2023-04-20T03:03:43.371Z,13.77
2023-04-20T03:06:10.879Z,16.87
2023-04-20T03:08:38.057Z,17.73
2023-04-20T03:11:05.323Z,17.35
2023-04-20T03:13:32.538Z,14.35
2023-04-20T03:15:59.784Z,19.63
2023-04-20T03:18:27.076Z,18.33
2023-04-20T03:20:54.620Z,19.10
2023-04-20T03:23:21.950Z,19.35
2023-04-20T03:25:49.341Z,17.35
2023-04-20T03:28:16.735Z,17.40
2023-04-20T03:30:44.075Z,19.63
2023-04-20T03:33:11.893Z,19.60
2023-04-20T03:35:39.545Z,17.95
2023-04-20T03:38:06.841Z,19.63
2023-04-20T03:40:34.996Z,19.00
2023-04-20T03:43:02.206Z,18.73
2023-04-20T03:45:29.518Z,20.60
2023-04-20T03:47:56.724Z,19.20
2023-04-20T03:50:23.976Z,21.00
2023-04-20T03:52:51.630Z,21.40
2023-04-20T03:55:18.870Z,19.60
2023-04-20T03:57:46.028Z,20.95
2023-04-20T04:00:14.219Z,18.95
2023-04-20T04:02:41.491Z,21.75
2023-04-20T04:05:09.019Z,18.98
2023-04-20T04:07:36.385Z,20.53
2023-04-20T04:10:05.863Z,21.90
2023-04-20T04:12:33.201Z,22.50
2023-04-20T04:15:00.435Z,20.15
2023-04-20T04:17:27.681Z,22.45
2023-04-20T04:19:54.893Z,21.05
2023-04-20T04:22:22.117Z,22.65
2023-04-20T04:24:49.472Z,21.38
2023-04-20T04:27:16.771Z,21.98
2023-04-20T04:29:44.821Z,21.92
2023-04-20T04:32:12.505Z,20.70
2023-04-20T04:34:39.719Z,21.95
2023-04-20T04:37:06.924Z,23.02
2023-04-20T04:39:34.142Z,22.85
2023-04-20T04:42:04.340Z,21.83
2023-04-20T04:44:33.323Z,20.45
2023-04-20T04:47:02.921Z,19.98
2023-04-20T04:49:30.883Z,21.92
2023-04-20T04:51:59.187Z,21.52
2023-04-20T04:54:26.401Z,21.13
2023-04-20T04:56:53.631Z,19.92
2023-04-20T04:59:20.959Z,19.13
2023-04-20T05:01:48.160Z,19.20
2023-04-20T05:04:15.677Z,19.85
2023-04-20T05:06:42.985Z,20.15
2023-04-20T05:09:10.166Z,19.15
2023-04-20T05:11:37.391Z,19.80
2023-04-20T05:14:04.584Z,20.23
2023-04-20T05:16:31.813Z,19.35
2023-04-20T05:18:59.078Z,18.95
2023-04-20T05:21:26.347Z,19.42
2023-04-20T05:23:53.611Z,18.23
2023-04-20T05:26:21.214Z,20.55
2023-04-20T05:28:48.403Z,18.50
2023-04-20T05:31:15.878Z,19.52
2023-04-20T05:33:43.465Z,18.67
2023-04-20T05:36:10.940Z,20.00
2023-04-20T05:38:39.204Z,18.60
2023-04-20T05:41:06.652Z,19.23
2023-04-20T05:43:33.893Z,20.30
2023-04-20T05:46:01.147Z,19.20
2023-04-20T05:48:30.023Z,18.92
2023-04-20T05:50:58.339Z,19.08
2023-04-20T05:53:26.249Z,19.58
2023-04-20T05:55:53.680Z,18.88
2023-04-20T05:58:20.971Z,20.45
2023-04-20T06:00:48.343Z,19.05
2023-04-20T06:03:16.749Z,17.95
2023-04-20T06:05:44.336Z,18.70
2023-04-20T06:08:12.168Z,17.63
2023-04-20T06:10:39.409Z,19.88
2023-04-20T06:13:06.583Z,17.92
2023-04-20T06:15:33.844Z,16.60
2023-04-20T06:18:01.795Z,16.15
2023-04-20T06:20:29.277Z,18.30
2023-04-20T06:22:57.087Z,17.33
2023-04-20T06:25:24.406Z,19.73
2023-04-20T06:27:52.821Z,17.58
2023-04-20T06:30:20.486Z,17.30
2023-04-20T06:32:47.772Z,15.98
2023-04-20T06:35:15.141Z,16.27
2023-04-20T06:37:42.374Z,15.60
2023-04-20T06:40:09.814Z,16.42
2023-04-20T06:42:40.095Z,16.52
2023-04-20T06:45:08.451Z,16.30
2023-04-20T06:47:36.912Z,15.40
2023-04-20T06:50:09.826Z,15.82
2023-04-20T06:52:41.735Z,14.73
2023-04-20T06:55:10.170Z,14.02
2023-04-20T07:00:10.472Z,13.43
2023-04-20T07:02:49.509Z,13.77
2023-04-20T07:05:18.268Z,13.88
2023-04-20T07:07:46.171Z,12.73
2023-04-20T07:10:15.777Z,14.63
2023-04-20T07:12:44.115Z,12.45
2023-04-20T07:17:39.431Z,13.77
2023-04-20T07:20:08.678Z,13.57
2023-04-20T07:22:37.379Z,16.23
2023-04-20T07:25:08.144Z,14.57
2023-04-20T07:27:37.849Z,13.15
2023-04-20T07:30:06.958Z,13.27
2023-04-20T07:32:35.223Z,13.00
2023-04-20T07:35:03.482Z,13.70
2023-04-20T07:37:32.015Z,14.68
2023-04-20T07:42:26.732Z,13.77
2023-04-20T07:44:54.429Z,12.20
2023-04-20T07:47:21.791Z,13.73
2023-04-20T07:49:49.170Z,12.77
2023-04-20T07:52:17.441Z,13.10
2023-04-20T07:57:13.321Z,12.95
2023-04-20T07:59:40.873Z,13.02
2023-04-20T08:02:09.148Z,12.50
2023-04-20T08:04:41.181Z,12.05
2023-04-20T08:07:08.741Z,12.95
2023-04-20T08:09:36.004Z,12.50
2023-04-20T08:12:03.419Z,12.45
2023-04-20T08:14:30.827Z,13.98
2023-04-20T08:16:58.042Z,12.73
2023-04-20T08:19:25.294Z,12.75
2023-04-20T08:21:52.958Z,13.13
2023-04-20T08:24:20.891Z,13.43
2023-04-20T08:26:48.409Z,13.27
2023-04-20T08:29:15.844Z,13.70
2023-04-20T08:31:43.348Z,13.73
2023-04-20T08:34:12.200Z,13.00
2023-04-20T08:36:39.481Z,14.18
2023-04-20T08:39:09.606Z,13.57
2023-04-20T08:41:37.178Z,14.25
2023-04-20T08:44:04.879Z,13.83
2023-04-20T08:46:34.668Z,12.80
2023-04-20T08:49:05.001Z,12.68
2023-04-20T08:51:32.671Z,13.23
2023-04-20T08:54:06.098Z,13.57
2023-04-20T08:56:38.694Z,16.48
2023-04-20T08:59:10.046Z,12.88
2023-04-20T09:01:41.956Z,13.85
2023-04-20T09:04:21.274Z,15.50
2023-04-20T09:06:51.385Z,13.02
2023-04-20T09:09:25.324Z,13.63
2023-04-20T09:12:09.951Z,13.40
2023-04-20T09:14:48.111Z,11.82
2023-04-20T09:19:54.462Z,12.55
2023-04-20T09:22:37.148Z,13.60
2023-04-20T09:25:18.219Z,13.27
2023-04-20T09:28:00.017Z,14.38
2023-04-20T09:30:45.390Z,26.13
2023-04-20T09:33:14.634Z,14.20
2023-04-20T09:35:45.737Z,23.15
2023-04-20T09:38:17.160Z,31.08
2023-04-20T09:40:44.671Z,17.23
2023-04-20T09:43:19.923Z,14.65
2023-04-20T09:45:47.576Z,13.65
2023-04-20T09:48:19.016Z,13.50
2023-04-20T09:50:50.123Z,13.00
2023-04-20T09:53:19.677Z,12.43
2023-04-20T09:55:49.724Z,12.18
2023-04-20T09:58:21.639Z,12.40
2023-04-20T10:00:50.084Z,11.48
2023-04-20T10:03:19.561Z,14.90
2023-04-20T10:05:47.507Z,12.57
2023-04-20T10:08:14.877Z,12.00
2023-04-20T10:10:46.677Z,13.50
2023-04-20T10:13:16.129Z,12.48
2023-04-20T10:15:43.560Z,14.48
2023-04-20T10:18:20.364Z,21.80
2023-04-20T10:20:47.774Z,14.43
2023-04-20T10:23:16.432Z,14.48
2023-04-20T10:25:45.517Z,13.60
2023-04-20T10:28:12.865Z,12.75
2023-04-20T10:33:19.667Z,12.32
2023-04-20T10:35:56.318Z,13.25
2023-04-20T10:38:35.557Z,13.75
2023-04-20T10:41:14.678Z,14.15
2023-04-20T10:43:44.682Z,13.73
2023-04-20T10:46:24.372Z,13.45
2023-04-20T10:49:03.811Z,13.93
2023-04-20T10:51:31.618Z,12.82
2023-04-20T10:54:08.648Z,12.48
2023-04-20T11:01:47.014Z,11.13
2023-04-20T11:04:18.313Z,12.50
2023-04-20T11:06:50.460Z,11.93
2023-04-20T11:09:28.430Z,11.88
2023-04-20T11:12:16.134Z,10.77
2023-04-20T11:15:10.152Z,12.63
2023-04-20T11:17:39.581Z,15.35
2023-04-20T11:20:16.390Z,14.48
2023-04-20T11:22:44.617Z,13.30
2023-04-20T11:25:13.064Z,16.60
2023-04-20T11:27:42.274Z,12.43
2023-04-20T11:30:10.488Z,16.20
2023-04-20T11:32:38.380Z,19.85
2023-04-20T11:35:11.137Z,15.15
2023-04-20T11:37:51.495Z,16.77
2023-04-20T11:40:19.202Z,12.02
2023-04-20T11:42:46.577Z,11.25
2023-04-20T12:09:50.691Z,15.48
2023-04-20T12:12:18.072Z,14.98
2023-04-20T12:14:45.315Z,20.27
2023-04-20T12:17:12.485Z,19.27
2023-04-20T12:19:39.686Z,18.30
2023-04-20T12:22:06.968Z,17.92
2023-04-20T12:24:34.199Z,16.85
2023-04-20T12:27:01.596Z,15.00
2023-04-20T12:29:31.188Z,14.77
2023-04-20T12:31:58.857Z,16.30
2023-04-20T12:34:26.719Z,18.75
2023-04-20T12:39:21.909Z,21.55
2023-04-20T12:41:49.093Z,15.65
2023-04-20T12:44:17.634Z,15.93
2023-04-20T12:46:45.578Z,15.90
2023-04-20T12:49:12.917Z,18.70
2023-04-20T12:51:40.893Z,15.07
2023-04-20T12:54:08.586Z,17.85
2023-04-20T12:56:38.356Z,16.20
2023-04-20T12:59:05.683Z,17.02
2023-04-20T13:01:33.032Z,21.83
2023-04-20T13:04:00.561Z,17.05
2023-04-20T13:06:28.132Z,16.38
2023-04-20T13:08:55.337Z,15.60
2023-04-20T13:11:22.521Z,15.18
2023-04-20T13:13:49.705Z,14.18
2023-04-20T13:16:17.000Z,14.13
2023-04-20T13:18:44.674Z,13.43
2023-04-20T13:21:11.897Z,13.33
2023-04-20T13:23:40.060Z,15.25
2023-04-20T13:26:08.492Z,13.50
2023-04-20T13:40:51.729Z,11.75
2023-04-20T13:43:21.358Z,12.45
2023-04-20T13:45:48.998Z,13.52
2023-04-20T13:48:16.281Z,12.20
2023-04-20T14:00:34.178Z,9.43
2023-04-20T14:03:02.353Z,9.30
2023-04-20T14:05:29.839Z,12.07
2023-04-20T14:08:01.436Z,11.55
2023-04-20T14:10:29.268Z,16.23
2023-04-20T14:12:57.392Z,10.73
2023-04-20T14:15:24.872Z,9.48
2023-04-20T14:17:53.011Z,17.83
2023-04-20T14:20:27.594Z,9.57
2023-04-20T14:22:54.808Z,9.98
2023-04-20T14:25:22.115Z,8.60
2023-04-20T14:27:49.373Z,9.93
2023-04-20T14:30:16.694Z,10.07
2023-04-20T14:32:57.452Z,9.68
2023-04-20T14:35:27.472Z,9.88
2023-04-20T14:37:54.900Z,11.05
2023-04-20T14:40:22.385Z,9.43
2023-04-20T14:42:49.640Z,9.60
2023-04-20T14:45:16.938Z,9.93
2023-04-20T14:47:44.195Z,8.13
2023-04-20T14:50:11.897Z,8.68
2023-04-20T14:52:39.083Z,9.33
2023-04-20T14:55:06.789Z,10.15
2023-04-20T14:57:34.328Z,10.30
2023-04-20T15:00:01.599Z,9.23
2023-04-20T15:02:29.008Z,9.70
2023-04-20T15:04:58.797Z,10.43
2023-04-20T15:07:26.320Z,9.60
2023-04-20T15:09:53.545Z,10.20
2023-04-20T15:12:21.000Z,9.73
2023-04-20T15:14:49.189Z,10.15
2023-04-20T15:17:16.493Z,9.63
2023-04-20T15:19:46.124Z,9.13
2023-04-20T15:41:53.794Z,8.73
2023-04-20T15:44:21.106Z,9.00
2023-04-20T15:46:48.738Z,8.73
2023-04-20T15:49:19.956Z,9.43
2023-04-20T15:51:47.783Z,8.93
2023-04-20T15:54:15.681Z,9.43
2023-04-20T15:56:43.003Z,8.88
2023-04-20T15:59:10.185Z,8.43
2023-04-20T16:01:37.409Z,8.88
2023-04-20T16:04:05.103Z,9.77
2023-04-20T16:06:32.584Z,8.10
2023-04-20T16:08:59.788Z,8.18
2023-04-20T16:11:27.175Z,8.75
2023-04-20T16:13:57.767Z,10.77
2023-04-20T16:16:25.631Z,9.20
2023-04-20T16:18:55.034Z,9.13
2023-04-20T16:21:23.431Z,9.02
2023-04-20T16:23:56.708Z,9.25
2023-04-20T16:26:27.193Z,9.55
2023-04-20T16:28:54.483Z,8.55
2023-04-20T16:31:21.825Z,9.73
2023-04-20T16:33:49.183Z,9.90
2023-04-20T16:36:16.665Z,10.30
2023-04-20T16:38:43.967Z,10.60
2023-04-20T16:41:11.228Z,10.05
2023-04-20T16:43:38.513Z,10.18
2023-04-20T16:46:05.885Z,10.02
2023-04-20T16:48:33.169Z,10.95
2023-04-20T16:51:00.453Z,10.57
2023-04-20T16:53:27.689Z,9.48
2023-04-20T16:55:54.932Z,9.35
2023-04-20T16:58:22.665Z,10.70
2023-04-20T17:00:50.496Z,9.95
2023-04-20T17:03:17.904Z,10.48
2023-04-20T17:05:51.185Z,11.80
2023-04-20T17:08:19.003Z,9.57
2023-04-20T17:10:46.273Z,10.10
2023-04-20T17:13:13.715Z,8.63
2023-04-20T17:15:42.766Z,8.85
2023-04-20T17:18:10.011Z,7.75
2023-04-20T17:20:37.295Z,10.00
2023-04-20T17:23:04.598Z,8.10
2023-04-20T17:25:31.996Z,8.07
2023-04-20T17:27:59.255Z,7.85
2023-04-20T17:30:26.553Z,8.13
2023-04-20T17:32:54.197Z,7.13
2023-04-20T17:35:22.709Z,7.27
2023-04-20T17:40:16.961Z,7.85
2023-04-20T17:42:44.285Z,7.80
2023-04-20T17:45:12.002Z,7.78
2023-04-20T17:47:39.284Z,7.13
2023-04-20T17:50:07.723Z,8.18
2023-04-20T17:52:35.901Z,8.73
2023-04-20T17:55:03.396Z,8.43
2023-04-20T17:57:30.708Z,8.07
2023-04-20T17:59:57.992Z,8.30
2023-04-20T18:02:25.466Z,7.75
2023-04-20T18:04:55.335Z,9.38
2023-04-20T18:07:22.735Z,8.73
2023-04-20T18:09:49.967Z,8.20
2023-04-20T18:12:17.241Z,8.55
2023-04-20T18:14:45.275Z,8.88
2023-04-20T18:17:12.623Z,9.20
2023-04-20T18:19:41.084Z,7.85
2023-04-20T18:24:36.314Z,8.48
2023-04-20T18:27:04.151Z,8.52
2023-04-20T18:29:31.549Z,9.63
2023-04-20T18:32:02.002Z,10.15
2023-04-20T18:34:32.070Z,11.77
2023-04-20T18:36:59.755Z,10.15
2023-04-20T18:39:27.209Z,11.47
2023-04-20T18:41:54.480Z,9.77
2023-04-20T18:44:21.904Z,11.80
2023-04-20T18:46:49.475Z,11.23
2023-04-20T18:49:16.796Z,10.02
2023-04-20T18:51:44.056Z,10.07
2023-04-20T18:54:11.421Z,9.65
2023-04-20T18:56:39.601Z,13.50
2023-04-20T18:59:08.536Z,10.65
2023-04-20T19:01:40.388Z,11.43
2023-04-20T19:04:09.001Z,11.30
2023-04-20T19:09:05.870Z,10.32
2023-04-20T19:11:35.911Z,10.50
2023-04-20T19:14:08.458Z,10.68
2023-04-20T19:16:37.037Z,11.05
2023-04-20T19:21:34.268Z,11.02
2023-04-20T19:24:01.679Z,10.67
2023-04-20T19:26:29.398Z,9.35
2023-04-20T19:28:58.296Z,12.00
2023-04-20T19:31:26.563Z,11.02
2023-04-20T19:33:55.338Z,10.60
2023-04-20T19:36:24.365Z,10.63
2023-04-20T19:38:51.679Z,10.05
2023-04-20T19:41:19.050Z,11.00
2023-04-20T19:43:46.286Z,10.80
2023-04-20T19:46:16.870Z,9.55
2023-04-20T19:48:44.773Z,10.27
2023-04-20T19:51:12.008Z,9.95
2023-04-20T19:53:39.210Z,9.02
2023-04-20T19:56:06.788Z,9.45
2023-04-20T19:58:34.204Z,9.80
2023-04-20T20:01:04.656Z,10.88
2023-04-20T20:03:32.154Z,10.18
2023-04-20T20:05:59.593Z,9.57
2023-04-20T20:08:27.187Z,10.25
2023-04-20T20:10:54.470Z,10.87
2023-04-20T20:13:21.686Z,10.20
2023-04-20T20:15:48.980Z,10.27
2023-04-20T20:18:16.408Z,10.25
2023-04-20T20:20:43.610Z,10.43
2023-04-20T20:23:10.897Z,10.45
2023-04-20T20:25:38.260Z,10.30
2023-04-20T20:28:05.750Z,9.88
2023-04-20T20:30:33.096Z,9.80
2023-04-20T20:33:00.808Z,10.82
2023-04-20T20:35:31.795Z,10.25
2023-04-20T20:37:59.875Z,10.07
2023-04-20T20:40:27.143Z,9.95
2023-04-20T20:42:54.415Z,9.60
2023-04-20T20:45:22.002Z,10.85
2023-04-20T20:47:49.345Z,10.87
2023-04-20T20:50:17.125Z,10.20
2023-04-20T20:52:44.416Z,10.45
2023-04-20T20:55:12.379Z,10.38
2023-04-20T20:57:39.814Z,10.77
2023-04-20T21:00:10.442Z,10.40
2023-04-20T21:02:38.665Z,9.77
2023-04-20T21:05:06.698Z,9.52
2023-04-20T21:07:34.029Z,10.50
2023-04-20T21:10:01.589Z,9.77
2023-04-20T21:12:28.782Z,9.52
2023-04-20T21:14:56.102Z,9.52
2023-04-20T21:17:23.373Z,9.38
2023-04-20T21:19:51.621Z,9.80
2023-04-20T21:22:20.189Z,11.38
2023-04-20T21:24:47.383Z,13.68
2023-04-20T21:27:14.604Z,13.13
2023-04-20T21:29:41.786Z,13.00
2023-04-20T21:32:09.980Z,15.68
2023-04-20T21:34:37.257Z,12.93
2023-04-20T21:37:05.704Z,14.07
2023-04-20T21:42:01.526Z,14.35
2023-04-20T21:44:29.203Z,14.55
2023-04-20T21:46:56.561Z,16.20
2023-04-20T21:49:23.770Z,14.85
2023-04-20T21:51:50.970Z,14.02
2023-04-20T21:54:18.141Z,15.07
2023-04-20T21:56:46.633Z,14.05
2023-04-20T22:01:41.678Z,13.93
2023-04-20T22:04:10.410Z,14.57
2023-04-20T22:06:38.038Z,14.63
2023-04-20T22:09:05.337Z,14.55
2023-04-20T22:11:36.434Z,15.05
2023-04-20T22:14:04.604Z,15.70
2023-04-20T22:16:34.034Z,14.75
2023-04-20T22:19:01.493Z,14.75
2023-04-20T22:21:28.786Z,15.55
2023-04-20T22:23:56.053Z,15.82
2023-04-20T22:26:23.751Z,16.13
2023-04-20T22:28:50.970Z,15.20
2023-04-20T22:31:18.205Z,13.65
2023-04-20T22:33:45.532Z,14.98
2023-04-20T22:36:13.026Z,15.23
2023-04-20T22:38:40.586Z,14.80
2023-04-20T22:41:07.998Z,15.00
2023-04-20T22:43:35.311Z,14.63
2023-04-20T22:46:02.582Z,15.30
2023-04-20T22:48:29.850Z,14.23
2023-04-20T22:51:00.813Z,13.30
2023-04-20T22:53:30.200Z,13.82
2023-04-20T22:56:05.929Z,13.75
2023-04-20T22:58:33.708Z,13.25
2023-04-20T23:01:01.065Z,13.65
2023-04-20T23:03:28.713Z,14.07
2023-04-20T23:05:57.512Z,12.32
2023-04-20T23:08:26.162Z,13.45
2023-04-20T23:13:26.183Z,11.55
2023-04-20T23:15:53.718Z,12.75
2023-04-20T23:18:20.947Z,12.25
2023-04-20T23:20:48.198Z,12.57
2023-04-20T23:23:15.534Z,13.65
2023-04-20T23:25:42.765Z,12.85
2023-04-20T23:28:10.011Z,13.25
2023-04-20T23:30:37.231Z,12.15
2023-04-20T23:33:04.561Z,11.82
2023-04-20T23:35:31.868Z,12.45
2023-04-20T23:37:59.173Z,12.45
2023-04-20T23:40:26.479Z,12.40
2023-04-20T23:42:55.196Z,13.05
2023-04-20T23:45:23.531Z,11.45
2023-04-20T23:47:50.895Z,11.65
2023-04-20T23:50:18.230Z,10.98
2023-04-20T23:52:45.492Z,12.77
2023-04-20T23:55:12.745Z,10.88
2023-04-20T23:57:39.979Z,11.10
